sensor_id;sensor_type;location;lat;lon;timestamp;pressure;altitude;pressure_sealevel;temperature;humidity
64294;BME280;50636;45.596;5.258;2023-02-01T00:01:22;99866.66;;;8.99;55.17
64294;BME280;50636;45.596;5.258;2023-02-01T00:03:48;99872.16;;;8.72;55.89
64294;BME280;50636;45.596;5.258;2023-02-01T00:06:13;99871.94;;;8.65;56.71
64294;BME280;50636;45.596;5.258;2023-02-01T00:08:39;99870.22;;;8.82;57.14
64294;BME280;50636;45.596;5.258;2023-02-01T00:11:10;99863.88;;;9.01;56.06
64294;BME280;50636;45.596;5.258;2023-02-01T00:13:37;99864.53;;;9.03;55.87
64294;BME280;50636;45.596;5.258;2023-02-01T00:16:07;99870.94;;;9.17;55.47
64294;BME280;50636;45.596;5.258;2023-02-01T00:18:33;99871.94;;;9.32;55.05
64294;BME280;50636;45.596;5.258;2023-02-01T00:20:59;99864.25;;;9.47;54.61
64294;BME280;50636;45.596;5.258;2023-02-01T00:23:24;99867.69;;;9.48;54.01
64294;BME280;50636;45.596;5.258;2023-02-01T00:25:50;99860.47;;;9.25;54.43
64294;BME280;50636;45.596;5.258;2023-02-01T00:28:16;99856.19;;;8.99;55.42
64294;BME280;50636;45.596;5.258;2023-02-01T00:30:41;99865.34;;;8.95;55.88
64294;BME280;50636;45.596;5.258;2023-02-01T00:33:08;99865.66;;;8.92;55.73
64294;BME280;50636;45.596;5.258;2023-02-01T00:35:34;99870.41;;;8.97;56.04
64294;BME280;50636;45.596;5.258;2023-02-01T00:38:00;99878.13;;;9.07;55.85
64294;BME280;50636;45.596;5.258;2023-02-01T00:40:26;99875.50;;;9.15;56.09
64294;BME280;50636;45.596;5.258;2023-02-01T00:42:52;99865.41;;;9.28;55.96
64294;BME280;50636;45.596;5.258;2023-02-01T00:45:18;99865.91;;;9.40;55.39
64294;BME280;50636;45.596;5.258;2023-02-01T00:47:43;99867.34;;;9.26;55.68
64294;BME280;50636;45.596;5.258;2023-02-01T00:50:09;99868.97;;;9.27;55.65
64294;BME280;50636;45.596;5.258;2023-02-01T00:52:35;99867.84;;;9.46;56.21
64294;BME280;50636;45.596;5.258;2023-02-01T00:55:01;99865.22;;;9.63;56.02
64294;BME280;50636;45.596;5.258;2023-02-01T00:57:26;99864.41;;;9.62;55.14
64294;BME280;50636;45.596;5.258;2023-02-01T00:59:52;99863.41;;;9.63;55.07
64294;BME280;50636;45.596;5.258;2023-02-01T01:02:17;99868.00;;;9.53;54.87
64294;BME280;50636;45.596;5.258;2023-02-01T01:04:43;99866.56;;;9.34;55.06
64294;BME280;50636;45.596;5.258;2023-02-01T01:07:09;99871.28;;;9.30;55.75
64294;BME280;50636;45.596;5.258;2023-02-01T01:09:34;99872.44;;;9.36;55.21
64294;BME280;50636;45.596;5.258;2023-02-01T01:12:00;99870.94;;;9.42;55.47
64294;BME280;50636;45.596;5.258;2023-02-01T01:14:32;99869.16;;;9.42;55.28
64294;BME280;50636;45.596;5.258;2023-02-01T01:16:57;99876.53;;;9.30;55.61
64294;BME280;50636;45.596;5.258;2023-02-01T01:19:23;99877.84;;;9.26;55.58
64294;BME280;50636;45.596;5.258;2023-02-01T01:21:48;99875.53;;;9.31;55.81
64294;BME280;50636;45.596;5.258;2023-02-01T01:24:14;99881.28;;;9.51;55.50
64294;BME280;50636;45.596;5.258;2023-02-01T01:26:40;99883.75;;;9.53;55.24
64294;BME280;50636;45.596;5.258;2023-02-01T01:29:05;99879.81;;;9.32;55.37
64294;BME280;50636;45.596;5.258;2023-02-01T01:31:31;99876.00;;;9.10;55.55
64294;BME280;50636;45.596;5.258;2023-02-01T01:33:58;99869.75;;;8.95;56.29
64294;BME280;50636;45.596;5.258;2023-02-01T01:36:25;99879.34;;;8.70;56.32
64294;BME280;50636;45.596;5.258;2023-02-01T01:38:52;99883.03;;;8.51;56.65
64294;BME280;50636;45.596;5.258;2023-02-01T01:41:26;99878.44;;;8.53;56.98
64294;BME280;50636;45.596;5.258;2023-02-01T01:46:26;99878.41;;;8.45;57.84
64294;BME280;50636;45.596;5.258;2023-02-01T01:49:04;99880.28;;;8.60;57.35
64294;BME280;50636;45.596;5.258;2023-02-01T01:51:33;99876.19;;;8.58;57.25
64294;BME280;50636;45.596;5.258;2023-02-01T01:54:14;99876.69;;;8.53;57.73
64294;BME280;50636;45.596;5.258;2023-02-01T01:56:43;99889.56;;;8.55;57.75
64294;BME280;50636;45.596;5.258;2023-02-01T01:59:11;99890.91;;;8.59;57.52
64294;BME280;50636;45.596;5.258;2023-02-01T02:01:37;99880.31;;;8.69;57.51
64294;BME280;50636;45.596;5.258;2023-02-01T02:04:03;99884.34;;;8.55;57.37
64294;BME280;50636;45.596;5.258;2023-02-01T02:06:34;99879.56;;;8.42;57.56
64294;BME280;50636;45.596;5.258;2023-02-01T02:09:03;99886.81;;;8.30;57.75
64294;BME280;50636;45.596;5.258;2023-02-01T02:11:32;99890.94;;;8.07;57.96
64294;BME280;50636;45.596;5.258;2023-02-01T02:14:00;99883.56;;;8.02;58.48
64294;BME280;50636;45.596;5.258;2023-02-01T02:19:12;99884.06;;;7.79;59.21
64294;BME280;50636;45.596;5.258;2023-02-01T02:25:21;99883.16;;;7.89;58.91
64294;BME280;50636;45.596;5.258;2023-02-01T02:30:38;99872.59;;;7.98;59.20
64294;BME280;50636;45.596;5.258;2023-02-01T02:45:12;99853.31;;;7.11;62.55
64294;BME280;50636;45.596;5.258;2023-02-01T02:51:07;99849.28;;;7.17;61.98
64294;BME280;50636;45.596;5.258;2023-02-01T02:54:02;99849.03;;;7.28;61.35
64294;BME280;50636;45.596;5.258;2023-02-01T02:56:48;99840.78;;;7.33;62.27
64294;BME280;50636;45.596;5.258;2023-02-01T02:59:34;99838.75;;;7.45;60.69
64294;BME280;50636;45.596;5.258;2023-02-01T03:02:20;99850.84;;;7.46;61.12
64294;BME280;50636;45.596;5.258;2023-02-01T03:05:05;99844.66;;;7.47;60.52
64294;BME280;50636;45.596;5.258;2023-02-01T03:07:53;99842.19;;;7.45;60.63
64294;BME280;50636;45.596;5.258;2023-02-01T03:13:56;99832.44;;;7.29;60.28
64294;BME280;50636;45.596;5.258;2023-02-01T03:18:42;99846.66;;;6.81;62.76
64294;BME280;50636;45.596;5.258;2023-02-01T03:21:20;99845.59;;;6.74;63.13
64294;BME280;50636;45.596;5.258;2023-02-01T03:23:49;99846.72;;;6.71;62.96
64294;BME280;50636;45.596;5.258;2023-02-01T03:26:17;99846.03;;;6.69;62.93
64294;BME280;50636;45.596;5.258;2023-02-01T03:28:50;99856.59;;;6.68;63.53
64294;BME280;50636;45.596;5.258;2023-02-01T03:31:17;99859.44;;;6.56;63.57
64294;BME280;50636;45.596;5.258;2023-02-01T03:33:43;99865.94;;;6.43;64.50
64294;BME280;50636;45.596;5.258;2023-02-01T03:42:11;99865.31;;;6.58;65.00
64294;BME280;50636;45.596;5.258;2023-02-01T03:44:38;99867.53;;;6.81;64.14
64294;BME280;50636;45.596;5.258;2023-02-01T03:49:41;99861.72;;;6.87;63.42
64294;BME280;50636;45.596;5.258;2023-02-01T03:52:15;99863.66;;;6.85;63.57
64294;BME280;50636;45.596;5.258;2023-02-01T03:54:42;99860.59;;;6.90;63.99
64294;BME280;50636;45.596;5.258;2023-02-01T03:57:16;99856.91;;;6.92;64.22
64294;BME280;50636;45.596;5.258;2023-02-01T03:59:45;99855.09;;;6.93;64.09
64294;BME280;50636;45.596;5.258;2023-02-01T04:02:11;99861.66;;;6.97;63.34
64294;BME280;50636;45.596;5.258;2023-02-01T04:04:37;99864.34;;;7.05;63.71
64294;BME280;50636;45.596;5.258;2023-02-01T04:07:03;99854.19;;;7.20;63.34
64294;BME280;50636;45.596;5.258;2023-02-01T04:09:29;99858.25;;;7.14;62.29
64294;BME280;50636;45.596;5.258;2023-02-01T04:11:55;99868.59;;;7.06;62.11
64294;BME280;50636;45.596;5.258;2023-02-01T04:14:20;99863.69;;;7.03;62.79
64294;BME280;50636;45.596;5.258;2023-02-01T04:16:46;99861.06;;;7.21;62.85
64294;BME280;50636;45.596;5.258;2023-02-01T04:19:11;99863.09;;;7.27;62.36
64294;BME280;50636;45.596;5.258;2023-02-01T04:21:37;99859.00;;;7.25;62.36
64294;BME280;50636;45.596;5.258;2023-02-01T04:24:03;99864.94;;;7.35;62.37
64294;BME280;50636;45.596;5.258;2023-02-01T04:26:29;99866.38;;;7.29;62.17
64294;BME280;50636;45.596;5.258;2023-02-01T04:28:55;99868.44;;;7.44;62.49
64294;BME280;50636;45.596;5.258;2023-02-01T04:31:20;99871.28;;;7.76;62.14
64294;BME280;50636;45.596;5.258;2023-02-01T04:33:53;99861.84;;;8.02;61.67
64294;BME280;50636;45.596;5.258;2023-02-01T04:36:20;99859.97;;;8.20;60.65
64294;BME280;50636;45.596;5.258;2023-02-01T04:38:48;99863.13;;;8.32;60.48
64294;BME280;50636;45.596;5.258;2023-02-01T04:41:14;99867.81;;;8.46;59.94
64294;BME280;50636;45.596;5.258;2023-02-01T04:43:41;99865.72;;;8.58;59.45
64294;BME280;50636;45.596;5.258;2023-02-01T04:46:06;99863.16;;;8.74;59.53
64294;BME280;50636;45.596;5.258;2023-02-01T04:48:32;99874.16;;;8.86;59.18
64294;BME280;50636;45.596;5.258;2023-02-01T04:50:57;99868.94;;;8.94;59.23
64294;BME280;50636;45.596;5.258;2023-02-01T04:53:23;99872.88;;;8.98;59.36
64294;BME280;50636;45.596;5.258;2023-02-01T04:55:49;99877.31;;;9.06;58.50
64294;BME280;50636;45.596;5.258;2023-02-01T04:58:15;99884.66;;;9.03;58.39
64294;BME280;50636;45.596;5.258;2023-02-01T05:00:41;99877.59;;;8.95;58.20
64294;BME280;50636;45.596;5.258;2023-02-01T05:03:07;99880.72;;;8.90;58.67
64294;BME280;50636;45.596;5.258;2023-02-01T05:05:32;99880.72;;;8.90;58.61
64294;BME280;50636;45.596;5.258;2023-02-01T05:07:58;99889.03;;;8.77;58.36
64294;BME280;50636;45.596;5.258;2023-02-01T05:10:24;99890.63;;;8.70;58.47
64294;BME280;50636;45.596;5.258;2023-02-01T05:12:49;99890.13;;;8.67;58.69
64294;BME280;50636;45.596;5.258;2023-02-01T05:15:33;99879.38;;;8.78;58.38
64294;BME280;50636;45.596;5.258;2023-02-01T05:17:59;99883.63;;;8.79;57.86
64294;BME280;50636;45.596;5.258;2023-02-01T05:20:25;99882.47;;;8.73;57.44
64294;BME280;50636;45.596;5.258;2023-02-01T05:22:50;99879.81;;;8.65;57.42
64294;BME280;50636;45.596;5.258;2023-02-01T05:25:16;99877.34;;;8.55;57.95
64294;BME280;50636;45.596;5.258;2023-02-01T05:27:42;99880.38;;;8.43;58.10
64294;BME280;50636;45.596;5.258;2023-02-01T05:30:08;99881.75;;;8.29;58.51
64294;BME280;50636;45.596;5.258;2023-02-01T05:32:34;99884.16;;;8.22;58.47
64294;BME280;50636;45.596;5.258;2023-02-01T05:35:00;99883.34;;;8.22;58.64
64294;BME280;50636;45.596;5.258;2023-02-01T05:37:25;99879.56;;;8.16;58.78
64294;BME280;50636;45.596;5.258;2023-02-01T05:39:51;99886.28;;;8.18;59.17
64294;BME280;50636;45.596;5.258;2023-02-01T05:42:17;99893.81;;;8.22;59.11
64294;BME280;50636;45.596;5.258;2023-02-01T05:44:43;99879.31;;;8.27;59.38
64294;BME280;50636;45.596;5.258;2023-02-01T05:47:09;99878.63;;;8.25;59.95
64294;BME280;50636;45.596;5.258;2023-02-01T05:49:34;99888.78;;;8.28;59.37
64294;BME280;50636;45.596;5.258;2023-02-01T05:52:00;99880.78;;;8.30;59.27
64294;BME280;50636;45.596;5.258;2023-02-01T05:54:26;99882.34;;;8.49;59.36
64294;BME280;50636;45.596;5.258;2023-02-01T05:56:51;99889.59;;;8.63;58.64
64294;BME280;50636;45.596;5.258;2023-02-01T05:59:17;99895.50;;;8.65;58.49
64294;BME280;50636;45.596;5.258;2023-02-01T06:01:42;99895.16;;;8.60;58.40
64294;BME280;50636;45.596;5.258;2023-02-01T06:04:08;99902.97;;;8.44;59.22
64294;BME280;50636;45.596;5.258;2023-02-01T06:06:35;99905.81;;;8.67;60.21
64294;BME280;50636;45.596;5.258;2023-02-01T06:09:02;99904.78;;;8.94;59.04
64294;BME280;50636;45.596;5.258;2023-02-01T06:11:28;99897.38;;;8.89;58.81
64294;BME280;50636;45.596;5.258;2023-02-01T06:13:54;99905.91;;;8.91;58.66
64294;BME280;50636;45.596;5.258;2023-02-01T06:16:21;99904.97;;;9.09;58.63
64294;BME280;50636;45.596;5.258;2023-02-01T06:18:47;99901.06;;;9.13;58.10
64294;BME280;50636;45.596;5.258;2023-02-01T06:21:13;99910.88;;;9.11;57.86
64294;BME280;50636;45.596;5.258;2023-02-01T06:23:39;99906.09;;;8.98;57.89
64294;BME280;50636;45.596;5.258;2023-02-01T06:26:06;99910.34;;;8.99;57.84
64294;BME280;50636;45.596;5.258;2023-02-01T06:28:35;99910.53;;;9.06;57.85
64294;BME280;50636;45.596;5.258;2023-02-01T06:31:05;99918.06;;;9.09;57.89
64294;BME280;50636;45.596;5.258;2023-02-01T06:33:34;99923.00;;;9.12;58.44
64294;BME280;50636;45.596;5.258;2023-02-01T06:36:02;99918.41;;;9.14;57.94
64294;BME280;50636;45.596;5.258;2023-02-01T06:38:29;99931.19;;;9.17;57.83
64294;BME280;50636;45.596;5.258;2023-02-01T06:40:56;99930.50;;;9.15;57.44
64294;BME280;50636;45.596;5.258;2023-02-01T06:43:26;99927.91;;;9.15;57.63
64294;BME280;50636;45.596;5.258;2023-02-01T06:45:53;99928.75;;;9.24;57.71
64294;BME280;50636;45.596;5.258;2023-02-01T06:48:18;99942.31;;;9.27;57.34
64294;BME280;50636;45.596;5.258;2023-02-01T06:50:44;99939.84;;;9.17;56.95
64294;BME280;50636;45.596;5.258;2023-02-01T06:53:10;99947.38;;;9.12;57.86
64294;BME280;50636;45.596;5.258;2023-02-01T06:55:36;99945.94;;;9.18;57.72
64294;BME280;50636;45.596;5.258;2023-02-01T06:58:02;99941.81;;;9.15;58.12
64294;BME280;50636;45.596;5.258;2023-02-01T07:00:28;99947.22;;;9.14;58.10
64294;BME280;50636;45.596;5.258;2023-02-01T07:02:54;99945.22;;;8.99;58.44
64294;BME280;50636;45.596;5.258;2023-02-01T07:05:20;99955.16;;;8.88;59.26
64294;BME280;50636;45.596;5.258;2023-02-01T07:07:46;99950.72;;;8.80;60.13
64294;BME280;50636;45.596;5.258;2023-02-01T07:10:12;99948.91;;;8.80;60.34
64294;BME280;50636;45.596;5.258;2023-02-01T07:12:38;99954.16;;;8.89;60.16
64294;BME280;50636;45.596;5.258;2023-02-01T07:15:04;99954.78;;;8.83;60.06
64294;BME280;50636;45.596;5.258;2023-02-01T07:17:30;99970.16;;;8.77;60.59
64294;BME280;50636;45.596;5.258;2023-02-01T07:19:56;99976.88;;;8.80;61.06
64294;BME280;50636;45.596;5.258;2023-02-01T07:22:23;99976.38;;;8.76;61.17
64294;BME280;50636;45.596;5.258;2023-02-01T07:24:49;99981.97;;;8.82;61.83
64294;BME280;50636;45.596;5.258;2023-02-01T07:27:15;99988.06;;;8.90;62.17
64294;BME280;50636;45.596;5.258;2023-02-01T07:29:40;99997.25;;;9.03;62.78
64294;BME280;50636;45.596;5.258;2023-02-01T07:32:06;100000.94;;;9.18;63.51
64294;BME280;50636;45.596;5.258;2023-02-01T07:34:31;100000.13;;;9.26;63.28
64294;BME280;50636;45.596;5.258;2023-02-01T07:36:58;100000.94;;;9.26;63.55
64294;BME280;50636;45.596;5.258;2023-02-01T07:39:23;100009.16;;;9.39;63.98
64294;BME280;50636;45.596;5.258;2023-02-01T07:41:49;100015.41;;;9.47;64.54
64294;BME280;50636;45.596;5.258;2023-02-01T07:44:14;100013.97;;;9.52;65.03
64294;BME280;50636;45.596;5.258;2023-02-01T07:46:40;100014.91;;;9.51;65.43
64294;BME280;50636;45.596;5.258;2023-02-01T07:49:06;100012.16;;;9.53;66.02
64294;BME280;50636;45.596;5.258;2023-02-01T07:51:32;100017.25;;;9.54;66.60
64294;BME280;50636;45.596;5.258;2023-02-01T07:53:57;100011.50;;;9.51;66.54
64294;BME280;50636;45.596;5.258;2023-02-01T07:56:23;100000.69;;;9.46;66.80
64294;BME280;50636;45.596;5.258;2023-02-01T07:58:51;100002.94;;;9.40;67.01
64294;BME280;50636;45.596;5.258;2023-02-01T08:01:19;99991.47;;;9.33;66.88
64294;BME280;50636;45.596;5.258;2023-02-01T08:03:52;99995.06;;;9.24;68.59
64294;BME280;50636;45.596;5.258;2023-02-01T08:06:19;99981.81;;;9.34;68.28
64294;BME280;50636;45.596;5.258;2023-02-01T08:08:45;99982.44;;;9.19;65.23
64294;BME280;50636;45.596;5.258;2023-02-01T08:11:13;99991.03;;;8.95;64.99
64294;BME280;50636;45.596;5.258;2023-02-01T08:13:39;99985.19;;;8.67;64.38
64294;BME280;50636;45.596;5.258;2023-02-01T08:16:06;99983.13;;;8.35;64.50
64294;BME280;50636;45.596;5.258;2023-02-01T08:18:34;99977.44;;;8.13;65.63
64294;BME280;50636;45.596;5.258;2023-02-01T08:21:16;99964.56;;;8.20;67.25
64294;BME280;50636;45.596;5.258;2023-02-01T08:23:43;99967.66;;;8.68;66.39
64294;BME280;50636;45.596;5.258;2023-02-01T08:28:37;99983.59;;;10.73;63.21
64294;BME280;50636;45.596;5.258;2023-02-01T08:31:08;99996.94;;;11.88;62.05
64294;BME280;50636;45.596;5.258;2023-02-01T08:33:35;99994.03;;;13.25;60.88
64294;BME280;50636;45.596;5.258;2023-02-01T08:36:03;99986.91;;;14.55;57.19
64294;BME280;50636;45.596;5.258;2023-02-01T08:38:29;99988.63;;;14.41;54.37
64294;BME280;50636;45.596;5.258;2023-02-01T08:40:55;99986.84;;;13.70;53.94
64294;BME280;50636;45.596;5.258;2023-02-01T08:43:21;99985.84;;;12.69;55.33
64294;BME280;50636;45.596;5.258;2023-02-01T08:45:46;99988.91;;;11.90;56.40
64294;BME280;50636;45.596;5.258;2023-02-01T08:48:12;99988.22;;;11.42;57.28
64294;BME280;50636;45.596;5.258;2023-02-01T08:50:38;99986.78;;;10.99;57.48
64294;BME280;50636;45.596;5.258;2023-02-01T08:53:03;99977.63;;;10.31;58.58
64294;BME280;50636;45.596;5.258;2023-02-01T08:55:29;99989.25;;;9.96;60.04
64294;BME280;50636;45.596;5.258;2023-02-01T08:57:55;99988.28;;;9.72;60.62
64294;BME280;50636;45.596;5.258;2023-02-01T09:00:21;99989.34;;;9.45;61.44
64294;BME280;50636;45.596;5.258;2023-02-01T09:02:47;99992.41;;;9.16;62.29
64294;BME280;50636;45.596;5.258;2023-02-01T09:05:12;99995.00;;;9.08;62.96
64294;BME280;50636;45.596;5.258;2023-02-01T09:07:39;100005.16;;;9.19;63.05
64294;BME280;50636;45.596;5.258;2023-02-01T09:10:05;100007.06;;;9.51;62.70
64294;BME280;50636;45.596;5.258;2023-02-01T09:12:32;100011.06;;;9.80;62.77
64294;BME280;50636;45.596;5.258;2023-02-01T09:14:58;100022.72;;;10.02;61.67
64294;BME280;50636;45.596;5.258;2023-02-01T09:17:26;100034.66;;;10.21;61.62
64294;BME280;50636;45.596;5.258;2023-02-01T09:19:52;100033.38;;;10.42;60.83
64294;BME280;50636;45.596;5.258;2023-02-01T09:22:18;100030.41;;;10.61;60.29
64294;BME280;50636;45.596;5.258;2023-02-01T09:24:44;100028.41;;;10.71;59.92
64294;BME280;50636;45.596;5.258;2023-02-01T09:27:09;100038.06;;;10.79;59.89
64294;BME280;50636;45.596;5.258;2023-02-01T09:29:35;100034.94;;;10.84;59.38
64294;BME280;50636;45.596;5.258;2023-02-01T09:32:01;100036.88;;;10.90;59.32
64294;BME280;50636;45.596;5.258;2023-02-01T09:34:27;100045.22;;;11.02;59.10
64294;BME280;50636;45.596;5.258;2023-02-01T09:36:53;100053.03;;;11.18;58.36
64294;BME280;50636;45.596;5.258;2023-02-01T09:39:18;100065.50;;;11.24;58.25
64294;BME280;50636;45.596;5.258;2023-02-01T09:44:59;100062.66;;;11.34;56.96
64294;BME280;50636;45.596;5.258;2023-02-01T09:47:30;100071.19;;;11.36;57.95
64294;BME280;50636;45.596;5.258;2023-02-01T09:52:40;100081.09;;;11.65;56.95
64294;BME280;50636;45.596;5.258;2023-02-01T09:55:18;100077.88;;;11.78;57.15
64294;BME280;50636;45.596;5.258;2023-02-01T09:57:57;100077.34;;;11.91;56.87
64294;BME280;50636;45.596;5.258;2023-02-01T10:00:27;100078.13;;;11.99;56.56
64294;BME280;50636;45.596;5.258;2023-02-01T10:02:55;100076.22;;;12.08;55.18
64294;BME280;50636;45.596;5.258;2023-02-01T10:10:47;100095.31;;;11.48;57.23
64294;BME280;50636;45.596;5.258;2023-02-01T10:16:31;100100.09;;;11.75;56.13
64294;BME280;50636;45.596;5.258;2023-02-01T10:19:10;100103.09;;;11.64;55.89
64294;BME280;50636;45.596;5.258;2023-02-01T10:26:59;100115.53;;;12.10;56.45
64294;BME280;50636;45.596;5.258;2023-02-01T10:29:33;100113.91;;;12.32;55.17
64294;BME280;50636;45.596;5.258;2023-02-01T10:32:01;100111.53;;;12.37;54.63
64294;BME280;50636;45.596;5.258;2023-02-01T10:34:31;100118.09;;;12.41;55.22
64294;BME280;50636;45.596;5.258;2023-02-01T10:37:01;100111.53;;;12.37;54.67
64294;BME280;50636;45.596;5.258;2023-02-01T10:39:32;100109.56;;;12.39;54.72
64294;BME280;50636;45.596;5.258;2023-02-01T10:41:58;100106.81;;;12.32;54.06
64294;BME280;50636;45.596;5.258;2023-02-01T10:44:27;100102.53;;;12.31;54.81
64294;BME280;50636;45.596;5.258;2023-02-01T10:46:54;100101.25;;;12.50;54.40
64294;BME280;50636;45.596;5.258;2023-02-01T10:49:26;100106.28;;;12.60;54.04
64294;BME280;50636;45.596;5.258;2023-02-01T10:52:14;100094.13;;;12.74;54.08
64294;BME280;50636;45.596;5.258;2023-02-01T10:54:42;100089.28;;;12.77;53.68
64294;BME280;50636;45.596;5.258;2023-02-01T10:57:10;100082.19;;;12.63;53.41
64294;BME280;50636;45.596;5.258;2023-02-01T10:59:36;100080.19;;;12.50;53.64
64294;BME280;50636;45.596;5.258;2023-02-01T11:02:16;100086.81;;;12.46;53.32
64294;BME280;50636;45.596;5.258;2023-02-01T11:04:44;100068.44;;;12.38;53.48
64294;BME280;50636;45.596;5.258;2023-02-01T11:07:22;100064.63;;;12.41;53.85
64294;BME280;50636;45.596;5.258;2023-02-01T11:09:53;100060.41;;;12.31;53.03
64294;BME280;50636;45.596;5.258;2023-02-01T11:12:35;100051.91;;;12.06;53.62
64294;BME280;50636;45.596;5.258;2023-02-01T11:15:22;100044.78;;;11.60;54.76
64294;BME280;50636;45.596;5.258;2023-02-01T11:17:49;100037.03;;;11.36;56.00
64294;BME280;50636;45.596;5.258;2023-02-01T11:20:19;100042.66;;;11.56;56.25
64294;BME280;50636;45.596;5.258;2023-02-01T11:22:47;100036.28;;;12.05;56.29
64294;BME280;50636;45.596;5.258;2023-02-01T11:25:16;100032.59;;;12.52;55.05
64294;BME280;50636;45.596;5.258;2023-02-01T11:27:42;100023.22;;;12.34;56.91
64294;BME280;50636;45.596;5.258;2023-02-01T11:30:16;100015.03;;;11.91;57.04
64294;BME280;50636;45.596;5.258;2023-02-01T11:32:43;100028.38;;;11.82;57.46
64294;BME280;50636;45.596;5.258;2023-02-01T11:35:15;100016.06;;;12.05;56.89
64294;BME280;50636;45.596;5.258;2023-02-01T11:37:43;100015.38;;;12.64;55.19
64294;BME280;50636;45.596;5.258;2023-02-01T11:42:54;99998.44;;;15.30;50.24
64294;BME280;50636;45.596;5.258;2023-02-01T11:45:31;99997.94;;;15.68;46.94
64294;BME280;50636;45.596;5.258;2023-02-01T11:47:59;99990.44;;;15.78;46.10
64294;BME280;50636;45.596;5.258;2023-02-01T11:50:33;99988.03;;;15.84;45.42
64294;BME280;50636;45.596;5.258;2023-02-01T11:53:45;99983.13;;;16.21;46.15
64294;BME280;50636;45.596;5.258;2023-02-01T11:55:56;99982.19;;;16.73;43.93
64294;BME280;50636;45.596;5.258;2023-02-01T12:09:14;99975.81;;;15.08;45.96
64294;BME280;50636;45.596;5.258;2023-02-01T12:20:27;99954.41;;;14.26;48.07
64294;BME280;50636;45.596;5.258;2023-02-01T12:29:07;99951.56;;;13.99;49.52
64294;BME280;50636;45.596;5.258;2023-02-01T12:32:10;99951.81;;;13.76;49.94
64294;BME280;50636;45.596;5.258;2023-02-01T12:34:53;99947.34;;;13.77;49.95
64294;BME280;50636;45.596;5.258;2023-02-01T12:43:16;99942.63;;;13.72;49.46
64294;BME280;50636;45.596;5.258;2023-02-01T12:45:59;99938.97;;;13.73;49.02
64294;BME280;50636;45.596;5.258;2023-02-01T12:48:37;99946.13;;;13.79;48.65
64294;BME280;50636;45.596;5.258;2023-02-01T12:51:12;99948.66;;;13.66;47.95
64294;BME280;50636;45.596;5.258;2023-02-01T12:59:24;99947.78;;;13.23;48.38
64294;BME280;50636;45.596;5.258;2023-02-01T13:04:29;99962.03;;;12.77;49.04
64294;BME280;50636;45.596;5.258;2023-02-01T13:09:53;99962.78;;;12.56;49.38
64294;BME280;50636;45.596;5.258;2023-02-01T13:13:10;99942.69;;;12.55;49.92
64294;BME280;50636;45.596;5.258;2023-02-01T13:16:12;99939.06;;;12.71;49.10
64294;BME280;50636;45.596;5.258;2023-02-01T13:18:41;99937.31;;;12.93;48.69
64294;BME280;50636;45.596;5.258;2023-02-01T13:21:14;99940.13;;;12.91;48.18
64294;BME280;50636;45.596;5.258;2023-02-01T13:23:42;99936.88;;;12.74;48.39
64294;BME280;50636;45.596;5.258;2023-02-01T13:26:10;99932.00;;;12.42;48.85
64294;BME280;50636;45.596;5.258;2023-02-01T13:37:31;99918.34;;;11.24;52.35
64294;BME280;50636;45.596;5.258;2023-02-01T13:43:14;99912.19;;;11.78;52.11
64294;BME280;50636;45.596;5.258;2023-02-01T13:45:45;99904.50;;;12.44;51.23
64294;BME280;50636;45.596;5.258;2023-02-01T13:48:22;99900.75;;;13.41;49.60
64294;BME280;50636;45.596;5.258;2023-02-01T13:50:54;99899.88;;;14.12;47.62
64294;BME280;50636;45.596;5.258;2023-02-01T13:53:29;99903.38;;;14.54;46.69
64294;BME280;50636;45.596;5.258;2023-02-01T13:56:03;99909.78;;;14.73;45.72
64294;BME280;50636;45.596;5.258;2023-02-01T14:03:55;99905.88;;;13.49;45.86
64294;BME280;50636;45.596;5.258;2023-02-01T14:11:48;99908.97;;;11.91;49.33
64294;BME280;50636;45.596;5.258;2023-02-01T14:19:34;99894.59;;;12.02;50.29
64294;BME280;50636;45.596;5.258;2023-02-01T14:22:31;99892.06;;;12.38;49.05
64294;BME280;50636;45.596;5.258;2023-02-01T14:24:54;99887.13;;;12.65;48.76
64294;BME280;50636;45.596;5.258;2023-02-01T14:27:26;99881.38;;;12.76;48.60
64294;BME280;50636;45.596;5.258;2023-02-01T14:29:56;99873.09;;;12.79;48.12
64294;BME280;50636;45.596;5.258;2023-02-01T14:32:30;99870.00;;;12.75;48.36
64294;BME280;50636;45.596;5.258;2023-02-01T14:34:59;99869.69;;;12.64;47.82
64294;BME280;50636;45.596;5.258;2023-02-01T14:37:37;99871.16;;;12.51;48.48
64294;BME280;50636;45.596;5.258;2023-02-01T14:40:17;99867.97;;;12.56;48.85
64294;BME280;50636;45.596;5.258;2023-02-01T14:42:52;99872.50;;;12.47;48.78
64294;BME280;50636;45.596;5.258;2023-02-01T14:47:52;99869.44;;;12.44;47.39
64294;BME280;50636;45.596;5.258;2023-02-01T14:55:50;99873.31;;;12.63;47.29
64294;BME280;50636;45.596;5.258;2023-02-01T14:58:36;99870.91;;;12.46;48.61
64294;BME280;50636;45.596;5.258;2023-02-01T15:01:24;99872.25;;;12.27;47.62
64294;BME280;50636;45.596;5.258;2023-02-01T15:04:06;99869.06;;;12.02;48.09
64294;BME280;50636;45.596;5.258;2023-02-01T15:06:43;99866.72;;;11.92;48.39
64294;BME280;50636;45.596;5.258;2023-02-01T15:12:04;99863.44;;;11.90;49.66
64294;BME280;50636;45.596;5.258;2023-02-01T15:14:32;99868.00;;;12.11;49.37
64294;BME280;50636;45.596;5.258;2023-02-01T15:16:58;99878.06;;;12.23;49.26
64294;BME280;50636;45.596;5.258;2023-02-01T15:19:27;99879.97;;;12.29;49.16
64294;BME280;50636;45.596;5.258;2023-02-01T15:21:55;99878.44;;;12.34;48.89
64294;BME280;50636;45.596;5.258;2023-02-01T15:24:25;99874.50;;;12.45;48.62
64294;BME280;50636;45.596;5.258;2023-02-01T15:26:52;99872.97;;;12.66;48.60
64294;BME280;50636;45.596;5.258;2023-02-01T15:29:21;99878.47;;;12.71;48.18
64294;BME280;50636;45.596;5.258;2023-02-01T15:31:49;99876.75;;;12.78;48.43
64294;BME280;50636;45.596;5.258;2023-02-01T15:34:16;99892.34;;;12.94;47.77
64294;BME280;50636;45.596;5.258;2023-02-01T15:36:43;99892.97;;;12.96;47.50
64294;BME280;50636;45.596;5.258;2023-02-01T15:39:21;99892.56;;;12.78;48.19
64294;BME280;50636;45.596;5.258;2023-02-01T15:42:10;99899.94;;;12.68;48.43
64294;BME280;50636;45.596;5.258;2023-02-01T15:44:43;99909.84;;;12.66;48.76